sensor_id;sensor_type;location;lat;lon;timestamp;temperature;humidity
73133;DHT22;61320;52.008;4.530;2022-12-07T00:02:21;8.07;82.74
73133;DHT22;61320;52.008;4.530;2022-12-07T00:04:49;7.98;83.12
73133;DHT22;61320;52.008;4.530;2022-12-07T00:07:14;8.00;83.38
73133;DHT22;61320;52.008;4.530;2022-12-07T00:09:42;8.04;83.18
73133;DHT22;61320;52.008;4.530;2022-12-07T00:12:08;8.02;82.90
73133;DHT22;61320;52.008;4.530;2022-12-07T00:14:33;8.04;82.80
73133;DHT22;61320;52.008;4.530;2022-12-07T00:16:59;8.00;82.09
73133;DHT22;61320;52.008;4.530;2022-12-07T00:19:25;7.94;82.15
73133;DHT22;61320;52.008;4.530;2022-12-07T00:21:50;7.91;81.77
73133;DHT22;61320;52.008;4.530;2022-12-07T00:24:16;7.84;81.94
73133;DHT22;61320;52.008;4.530;2022-12-07T00:26:42;7.77;81.83
73133;DHT22;61320;52.008;4.530;2022-12-07T00:29:18;7.73;82.17
73133;DHT22;61320;52.008;4.530;2022-12-07T00:31:44;7.69;79.69
73133;DHT22;61320;52.008;4.530;2022-12-07T00:34:18;7.59;81.64
73133;DHT22;61320;52.008;4.530;2022-12-07T00:36:44;7.62;82.12
73133;DHT22;61320;52.008;4.530;2022-12-07T01:23:37;7.62;81.81
73133;DHT22;61320;52.008;4.530;2022-12-07T01:26:06;7.56;82.32
73133;DHT22;61320;52.008;4.530;2022-12-07T01:28:32;7.56;82.72
73133;DHT22;61320;52.008;4.530;2022-12-07T01:31:05;7.50;82.08
73133;DHT22;61320;52.008;4.530;2022-12-07T01:33:34;7.46;81.43
73133;DHT22;61320;52.008;4.530;2022-12-07T01:38:28;7.32;80.13
73133;DHT22;61320;52.008;4.530;2022-12-07T01:40:55;7.25;81.94
73133;DHT22;61320;52.008;4.530;2022-12-07T01:43:23;7.18;82.05
73133;DHT22;61320;52.008;4.530;2022-12-07T01:45:51;7.23;82.66
73133;DHT22;61320;52.008;4.530;2022-12-07T01:48:23;7.29;82.80
73133;DHT22;61320;52.008;4.530;2022-12-07T01:50:53;7.32;83.18
73133;DHT22;61320;52.008;4.530;2022-12-07T02:39:07;7.33;82.58
73133;DHT22;61320;52.008;4.530;2022-12-07T02:41:40;7.35;80.93
73133;DHT22;61320;52.008;4.530;2022-12-07T02:44:13;7.33;82.16
73133;DHT22;61320;52.008;4.530;2022-12-07T02:46:44;7.38;82.65
73133;DHT22;61320;52.008;4.530;2022-12-07T02:49:12;7.40;82.55
73133;DHT22;61320;52.008;4.530;2022-12-07T02:51:43;7.45;82.52
73133;DHT22;61320;52.008;4.530;2022-12-07T03:24:58;7.65;81.48
73133;DHT22;61320;52.008;4.530;2022-12-07T03:30:07;7.63;81.39
73133;DHT22;61320;52.008;4.530;2022-12-07T03:32:37;7.66;82.02
73133;DHT22;61320;52.008;4.530;2022-12-07T03:35:22;7.62;82.13
73133;DHT22;61320;52.008;4.530;2022-12-07T03:37:56;7.63;81.69
73133;DHT22;61320;52.008;4.530;2022-12-07T03:54:21;7.40;80.88
73133;DHT22;61320;52.008;4.530;2022-12-07T03:56:50;7.32;80.93
73133;DHT22;61320;52.008;4.530;2022-12-07T03:59:18;7.28;80.27
73133;DHT22;61320;52.008;4.530;2022-12-07T04:01:50;7.21;80.09
73133;DHT22;61320;52.008;4.530;2022-12-07T04:04:17;7.09;79.44
73133;DHT22;61320;52.008;4.530;2022-12-07T04:06:43;7.02;80.24
73133;DHT22;61320;52.008;4.530;2022-12-07T04:09:08;6.98;81.08
73133;DHT22;61320;52.008;4.530;2022-12-07T04:11:34;7.02;81.58
73133;DHT22;61320;52.008;4.530;2022-12-07T04:13:59;7.05;81.24
73133;DHT22;61320;52.008;4.530;2022-12-07T04:16:49;7.08;82.05
73133;DHT22;61320;52.008;4.530;2022-12-07T04:19:16;7.15;82.46
73133;DHT22;61320;52.008;4.530;2022-12-07T04:21:43;7.18;81.73
73133;DHT22;61320;52.008;4.530;2022-12-07T04:24:09;7.23;82.17
73133;DHT22;61320;52.008;4.530;2022-12-07T04:26:35;7.25;81.50
73133;DHT22;61320;52.008;4.530;2022-12-07T04:29:00;7.26;81.32
73133;DHT22;61320;52.008;4.530;2022-12-07T04:31:26;7.23;81.31
73133;DHT22;61320;52.008;4.530;2022-12-07T04:33:52;7.26;81.66
73133;DHT22;61320;52.008;4.530;2022-12-07T04:36:17;7.25;81.60
73133;DHT22;61320;52.008;4.530;2022-12-07T04:38:45;7.23;81.43
73133;DHT22;61320;52.008;4.530;2022-12-07T04:41:10;7.26;81.73
73133;DHT22;61320;52.008;4.530;2022-12-07T04:43:36;7.26;81.56
73133;DHT22;61320;52.008;4.530;2022-12-07T04:46:01;7.23;80.94
73133;DHT22;61320;52.008;4.530;2022-12-07T04:48:27;7.26;81.67
73133;DHT22;61320;52.008;4.530;2022-12-07T04:50:53;7.23;81.15
73133;DHT22;61320;52.008;4.530;2022-12-07T04:53:18;7.21;80.34
73133;DHT22;61320;52.008;4.530;2022-12-07T04:55:44;7.19;80.94
73133;DHT22;61320;52.008;4.530;2022-12-07T04:58:11;7.15;80.49
73133;DHT22;61320;52.008;4.530;2022-12-07T05:00:37;7.11;80.83
73133;DHT22;61320;52.008;4.530;2022-12-07T05:03:03;7.09;80.35
73133;DHT22;61320;52.008;4.530;2022-12-07T05:05:28;7.09;80.77
73133;DHT22;61320;52.008;4.530;2022-12-07T05:07:54;7.14;81.81
73133;DHT22;61320;52.008;4.530;2022-12-07T05:41:15;6.95;79.49
73133;DHT22;61320;52.008;4.530;2022-12-07T05:44:00;6.84;78.85
73133;DHT22;61320;52.008;4.530;2022-12-07T05:46:26;6.74;79.66
73133;DHT22;61320;52.008;4.530;2022-12-07T05:48:51;6.69;80.25
73133;DHT22;61320;52.008;4.530;2022-12-07T05:51:17;6.69;81.19
73133;DHT22;61320;52.008;4.530;2022-12-07T05:53:42;6.69;80.34
73133;DHT22;61320;52.008;4.530;2022-12-07T06:13:08;6.81;80.09
73133;DHT22;61320;52.008;4.530;2022-12-07T06:15:37;6.81;81.39
73133;DHT22;61320;52.008;4.530;2022-12-07T06:18:03;6.83;81.05
73133;DHT22;61320;52.008;4.530;2022-12-07T06:20:29;6.84;82.08
73133;DHT22;61320;52.008;4.530;2022-12-07T06:22:54;6.85;81.85
73133;DHT22;61320;52.008;4.530;2022-12-07T06:25:20;6.84;81.89
73133;DHT22;61320;52.008;4.530;2022-12-07T06:41:26;6.70;78.71
73133;DHT22;61320;52.008;4.530;2022-12-07T06:43:51;6.64;81.50
73133;DHT22;61320;52.008;4.530;2022-12-07T06:46:17;6.67;80.88
73133;DHT22;61320;52.008;4.530;2022-12-07T06:48:43;6.67;81.87
73133;DHT22;61320;52.008;4.530;2022-12-07T06:51:11;6.69;80.73
73133;DHT22;61320;52.008;4.530;2022-12-07T06:53:39;6.69;81.65
73133;DHT22;61320;52.008;4.530;2022-12-07T06:56:08;6.76;81.60
73133;DHT22;61320;52.008;4.530;2022-12-07T06:58:33;6.76;82.32
73133;DHT22;61320;52.008;4.530;2022-12-07T07:00:59;6.81;82.52
73133;DHT22;61320;52.008;4.530;2022-12-07T07:03:24;6.87;82.37
73133;DHT22;61320;52.008;4.530;2022-12-07T07:05:50;6.92;82.39
73133;DHT22;61320;52.008;4.530;2022-12-07T07:08:16;6.97;82.24
73133;DHT22;61320;52.008;4.530;2022-12-07T07:10:41;6.97;82.24
73133;DHT22;61320;52.008;4.530;2022-12-07T07:13:08;6.97;81.06
73133;DHT22;61320;52.008;4.530;2022-12-07T07:15:34;6.92;80.76
73133;DHT22;61320;52.008;4.530;2022-12-07T07:18:00;6.92;80.78
73133;DHT22;61320;52.008;4.530;2022-12-07T07:20:26;6.88;81.11
73133;DHT22;61320;52.008;4.530;2022-12-07T07:22:56;6.85;81.05
73133;DHT22;61320;52.008;4.530;2022-12-07T07:25:22;6.84;81.64
73133;DHT22;61320;52.008;4.530;2022-12-07T07:27:47;6.84;81.61
73133;DHT22;61320;52.008;4.530;2022-12-07T07:30:13;6.87;80.48
73133;DHT22;61320;52.008;4.530;2022-12-07T07:32:39;6.83;80.75
73133;DHT22;61320;52.008;4.530;2022-12-07T07:35:05;6.87;81.67
73133;DHT22;61320;52.008;4.530;2022-12-07T07:37:30;6.87;81.11
73133;DHT22;61320;52.008;4.530;2022-12-07T07:39:56;6.81;80.32
73133;DHT22;61320;52.008;4.530;2022-12-07T07:59:15;6.73;80.19
73133;DHT22;61320;52.008;4.530;2022-12-07T08:01:41;6.74;80.62
73133;DHT22;61320;52.008;4.530;2022-12-07T08:04:07;6.73;81.36
73133;DHT22;61320;52.008;4.530;2022-12-07T08:06:32;6.74;81.42
73133;DHT22;61320;52.008;4.530;2022-12-07T08:08:58;6.79;82.03
73133;DHT22;61320;52.008;4.530;2022-12-07T08:11:24;6.84;81.07
73133;DHT22;61320;52.008;4.530;2022-12-07T08:13:50;6.84;80.87
73133;DHT22;61320;52.008;4.530;2022-12-07T08:16:16;6.83;81.20
73133;DHT22;61320;52.008;4.530;2022-12-07T08:18:42;6.84;80.89
73133;DHT22;61320;52.008;4.530;2022-12-07T08:21:12;6.83;81.19
73133;DHT22;61320;52.008;4.530;2022-12-07T08:23:38;6.83;80.49
73133;DHT22;61320;52.008;4.530;2022-12-07T08:26:06;6.81;80.56
73133;DHT22;61320;52.008;4.530;2022-12-07T08:31:56;6.81;80.72
73133;DHT22;61320;52.008;4.530;2022-12-07T08:34:42;6.85;80.33
73133;DHT22;61320;52.008;4.530;2022-12-07T08:43:36;7.02;81.25
73133;DHT22;61320;52.008;4.530;2022-12-07T08:46:20;7.05;81.96
73133;DHT22;61320;52.008;4.530;2022-12-07T08:48:56;7.08;80.74
73133;DHT22;61320;52.008;4.530;2022-12-07T08:51:31;7.11;81.23
73133;DHT22;61320;52.008;4.530;2022-12-07T08:54:04;7.21;81.26
73133;DHT22;61320;52.008;4.530;2022-12-07T08:56:30;7.23;81.27
73133;DHT22;61320;52.008;4.530;2022-12-07T09:27:01;7.67;82.80
73133;DHT22;61320;52.008;4.530;2022-12-07T09:29:26;7.71;82.65
73133;DHT22;61320;52.008;4.530;2022-12-07T09:31:52;7.77;82.47
73133;DHT22;61320;52.008;4.530;2022-12-07T09:34:18;7.80;82.44
73133;DHT22;61320;52.008;4.530;2022-12-07T09:36:45;7.80;82.31
73133;DHT22;61320;52.008;4.530;2022-12-07T09:39:10;7.79;82.19
73133;DHT22;61320;52.008;4.530;2022-12-07T09:41:42;7.77;81.84
73133;DHT22;61320;52.008;4.530;2022-12-07T09:44:13;7.74;82.32
73133;DHT22;61320;52.008;4.530;2022-12-07T09:46:42;7.79;81.95
73133;DHT22;61320;52.008;4.530;2022-12-07T09:49:21;7.80;82.02
73133;DHT22;61320;52.008;4.530;2022-12-07T09:51:58;7.77;81.96
73133;DHT22;61320;52.008;4.530;2022-12-07T09:54:24;7.81;81.58
73133;DHT22;61320;52.008;4.530;2022-12-07T09:56:50;7.83;81.66
73133;DHT22;61320;52.008;4.530;2022-12-07T09:59:19;7.87;81.62
73133;DHT22;61320;52.008;4.530;2022-12-07T10:01:47;7.98;81.92
73133;DHT22;61320;52.008;4.530;2022-12-07T10:04:20;8.20;81.96
73133;DHT22;61320;52.008;4.530;2022-12-07T10:06:48;8.35;81.85
73133;DHT22;61320;52.008;4.530;2022-12-07T10:09:20;8.45;81.77
73133;DHT22;61320;52.008;4.530;2022-12-07T10:12:06;8.48;81.67
73133;DHT22;61320;52.008;4.530;2022-12-07T10:18:31;8.39;81.47
